createdAt,value
2022-09-07T00:02:20.557Z,18.04
2022-09-07T00:04:47.063Z,17.71
2022-09-07T00:07:13.623Z,17.53
2022-09-07T00:09:40.093Z,18.36
2022-09-07T00:12:06.617Z,18.02
2022-09-07T00:14:34.308Z,18.29
2022-09-07T00:17:00.791Z,18.16
2022-09-07T00:19:27.308Z,18.56
2022-09-07T00:21:53.805Z,18.37
2022-09-07T00:24:20.279Z,18.19
2022-09-07T00:26:46.783Z,18.23
2022-09-07T00:29:13.273Z,17.93
2022-09-07T00:31:39.890Z,18.23
2022-09-07T00:34:06.607Z,18.21
2022-09-07T00:36:33.164Z,18.15
2022-09-07T00:38:59.801Z,18.35
2022-09-07T00:41:26.605Z,18.28
2022-09-07T00:43:56.083Z,18.07
2022-09-07T00:46:27.219Z,17.99
2022-09-07T00:49:13.979Z,17.65
2022-09-07T00:51:53.524Z,17.92
2022-09-07T00:54:24.649Z,17.75
2022-09-07T00:56:52.924Z,18.20
2022-09-07T00:59:24.190Z,18.18
2022-09-07T01:01:51.041Z,18.26
2022-09-07T01:04:18.072Z,18.21
2022-09-07T01:06:44.803Z,18.05
2022-09-07T01:09:14.004Z,18.09
2022-09-07T01:11:40.705Z,18.12
2022-09-07T01:14:09.521Z,18.28
2022-09-07T01:16:47.757Z,18.17
2022-09-07T01:19:26.387Z,18.01
2022-09-07T01:22:20.676Z,17.80
2022-09-07T01:24:55.717Z,17.98
2022-09-07T01:27:41.008Z,17.99
2022-09-07T01:30:10.261Z,18.10
2022-09-07T01:32:56.797Z,17.88
2022-09-07T01:35:37.868Z,17.83
2022-09-07T01:38:35.433Z,18.21
2022-09-07T01:41:25.430Z,17.83
2022-09-07T01:44:05.969Z,17.91
2022-09-07T01:46:41.470Z,17.86
2022-09-07T01:49:21.252Z,18.09
2022-09-07T01:51:51.717Z,18.01
2022-09-07T01:54:30.361Z,18.09
2022-09-07T01:57:03.604Z,18.18
2022-09-07T01:59:33.382Z,18.21
2022-09-07T02:02:07.736Z,17.64
2022-09-07T02:04:48.660Z,17.75
2022-09-07T02:07:22.147Z,18.18
2022-09-07T02:09:55.768Z,18.07
2022-09-07T02:12:27.188Z,17.91
2022-09-07T02:14:59.477Z,17.78
2022-09-07T02:17:33.814Z,18.07
2022-09-07T02:20:08.130Z,17.78
2022-09-07T02:22:39.258Z,17.52
2022-09-07T02:25:07.562Z,17.89
2022-09-07T02:27:45.953Z,17.85
2022-09-07T02:30:13.068Z,17.79
2022-09-07T02:32:39.628Z,17.80
2022-09-07T02:35:06.695Z,17.50
2022-09-07T02:37:34.249Z,17.63
2022-09-07T02:40:00.947Z,17.83
2022-09-07T02:42:33.219Z,17.81
2022-09-07T02:45:00.892Z,17.58
2022-09-07T02:47:33.972Z,17.74
2022-09-07T02:50:28.475Z,17.72
2022-09-07T02:53:10.217Z,18.03
2022-09-07T02:55:55.345Z,17.98
2022-09-07T02:58:42.057Z,17.96
2022-09-07T03:01:17.078Z,17.88
2022-09-07T03:03:55.637Z,17.73
2022-09-07T03:06:26.981Z,18.26
2022-09-07T03:08:54.805Z,17.96
2022-09-07T03:11:21.418Z,18.29
2022-09-07T03:13:48.051Z,18.12
2022-09-07T03:16:15.130Z,18.04
2022-09-07T03:18:44.326Z,18.08
2022-09-07T03:21:10.940Z,17.83
2022-09-07T03:23:40.464Z,18.03
2022-09-07T03:26:07.005Z,17.98
2022-09-07T03:28:33.512Z,18.02
2022-09-07T03:31:00.965Z,18.04
2022-09-07T03:33:27.598Z,17.90
2022-09-07T03:35:59.781Z,18.14
2022-09-07T03:38:26.288Z,17.83
2022-09-07T03:41:01.012Z,17.73
2022-09-07T03:43:28.581Z,18.10
2022-09-07T03:46:03.748Z,17.83
2022-09-07T03:48:32.260Z,17.85
2022-09-07T03:51:00.410Z,17.51
2022-09-07T03:53:27.266Z,17.50
2022-09-07T03:56:00.895Z,17.58
2022-09-07T03:58:29.488Z,17.60
2022-09-07T04:00:56.345Z,17.47
2022-09-07T04:03:22.897Z,17.73
2022-09-07T04:05:49.643Z,17.58
2022-09-07T04:08:16.164Z,17.38
2022-09-07T04:10:42.997Z,17.78
2022-09-07T04:13:09.685Z,17.65
2022-09-07T04:15:36.264Z,17.27
2022-09-07T04:18:02.765Z,17.60
2022-09-07T04:20:29.884Z,17.50
2022-09-07T04:22:56.547Z,17.63
2022-09-07T04:25:23.313Z,17.70
2022-09-07T04:27:49.801Z,17.59
2022-09-07T04:30:16.366Z,17.73
2022-09-07T04:32:42.853Z,17.60
2022-09-07T04:35:10.048Z,17.72
2022-09-07T04:37:36.493Z,18.03
2022-09-07T04:40:03.254Z,17.82
2022-09-07T04:42:29.994Z,17.78
2022-09-07T04:44:57.046Z,17.63
2022-09-07T04:47:23.656Z,17.76
2022-09-07T04:49:51.811Z,17.92
2022-09-07T04:52:18.816Z,17.89
2022-09-07T04:54:49.653Z,17.59
2022-09-07T04:57:16.703Z,17.85
2022-09-07T04:59:43.218Z,17.58
2022-09-07T05:02:09.746Z,17.74
2022-09-07T05:04:36.548Z,17.52
2022-09-07T05:07:03.033Z,17.51
2022-09-07T05:09:30.664Z,17.80
2022-09-07T05:11:57.194Z,17.70
2022-09-07T05:14:23.730Z,17.96
2022-09-07T05:16:50.287Z,17.82
2022-09-07T05:19:16.863Z,17.74
2022-09-07T05:21:43.389Z,17.65
2022-09-07T05:24:09.910Z,17.94
2022-09-07T05:26:37.147Z,17.92
2022-09-07T05:31:52.175Z,17.97
2022-09-07T05:34:33.970Z,17.89
2022-09-07T05:37:01.244Z,17.87
2022-09-07T05:39:29.940Z,18.14
2022-09-07T05:41:56.825Z,18.22
2022-09-07T05:47:10.096Z,18.16
2022-09-07T05:49:36.669Z,18.32
2022-09-07T05:52:03.428Z,18.49
2022-09-07T05:54:29.915Z,18.37
2022-09-07T05:56:56.382Z,18.37
2022-09-07T05:59:22.874Z,18.34
2022-09-07T06:01:49.463Z,18.36
2022-09-07T06:04:16.149Z,18.45
2022-09-07T06:09:12.602Z,18.53
2022-09-07T06:11:39.090Z,18.58
2022-09-07T06:14:05.573Z,18.58
2022-09-07T06:16:33.860Z,18.54
2022-09-07T06:19:07.565Z,18.48
2022-09-07T06:21:38.446Z,18.77
2022-09-07T06:24:06.211Z,18.80
2022-09-07T06:26:32.964Z,18.85
2022-09-07T06:28:59.553Z,18.85
2022-09-07T06:31:26.075Z,18.77
2022-09-07T06:33:54.458Z,18.34
2022-09-07T06:36:22.995Z,18.60
2022-09-07T06:38:50.465Z,18.56
2022-09-07T06:44:07.398Z,18.25
2022-09-07T06:49:20.374Z,18.55
2022-09-07T06:51:46.953Z,18.74
2022-09-07T06:57:00.036Z,18.56
2022-09-07T06:59:26.516Z,18.68
2022-09-07T07:01:52.981Z,18.83
2022-09-07T07:04:19.514Z,18.55
2022-09-07T07:06:46.012Z,18.79
2022-09-07T07:09:13.981Z,18.56
2022-09-07T07:11:40.564Z,18.85
2022-09-07T07:14:07.109Z,18.84
2022-09-07T07:16:33.632Z,18.82
2022-09-07T07:19:00.303Z,18.92
2022-09-07T07:21:28.964Z,19.19
2022-09-07T07:24:04.996Z,19.37
2022-09-07T07:26:34.713Z,19.00
2022-09-07T07:29:02.792Z,19.31
2022-09-07T07:31:30.280Z,18.92
2022-09-07T07:33:56.947Z,18.80
2022-09-07T07:36:25.561Z,18.79
2022-09-07T07:39:01.897Z,18.85
2022-09-07T07:44:18.156Z,19.04
2022-09-07T07:46:48.079Z,19.45
2022-09-07T07:49:14.716Z,19.38
2022-09-07T07:54:27.625Z,19.34
2022-09-07T07:56:54.056Z,19.82
2022-09-07T07:59:20.545Z,19.96
2022-09-07T08:01:47.074Z,20.11
2022-09-07T08:04:13.648Z,19.82
2022-09-07T08:06:42.593Z,19.62
2022-09-07T08:09:09.076Z,20.16
2022-09-07T08:11:35.522Z,19.96
2022-09-07T08:14:03.332Z,20.10
2022-09-07T08:16:29.801Z,19.86
2022-09-07T08:18:57.556Z,20.36
2022-09-07T08:21:24.034Z,20.29
2022-09-07T08:23:50.500Z,19.85
2022-09-07T08:26:17.057Z,20.12
2022-09-07T08:28:46.748Z,19.99
2022-09-07T08:31:15.290Z,20.16
2022-09-07T08:33:42.089Z,20.39
2022-09-07T08:36:13.360Z,20.06
2022-09-07T08:38:39.893Z,19.90
2022-09-07T08:41:34.407Z,20.59
2022-09-07T08:44:03.860Z,19.70
2022-09-07T08:46:40.213Z,19.97
2022-09-07T08:49:17.056Z,19.81
2022-09-07T08:51:51.034Z,19.30
2022-09-07T08:54:18.077Z,19.42
2022-09-07T08:59:40.908Z,19.11
2022-09-07T09:02:27.602Z,19.00
2022-09-07T09:07:49.401Z,18.86
2022-09-07T09:10:33.512Z,19.36
2022-09-07T09:13:15.015Z,19.36
2022-09-07T09:15:53.591Z,19.32
2022-09-07T09:18:46.567Z,19.63
2022-09-07T09:21:18.758Z,19.65
2022-09-07T09:23:48.377Z,19.37
2022-09-07T09:26:31.445Z,19.38
2022-09-07T09:28:58.056Z,19.32
2022-09-07T09:31:28.989Z,19.17
2022-09-07T09:34:13.855Z,19.00
2022-09-07T09:36:43.393Z,19.25
2022-09-07T09:39:36.584Z,19.12
2022-09-07T09:42:16.273Z,18.97
2022-09-07T09:44:43.546Z,18.53
2022-09-07T09:47:33.061Z,18.51
2022-09-07T09:52:28.545Z,18.82
2022-09-07T09:53:02.476Z,19.09
2022-09-07T09:55:36.073Z,18.85
2022-09-07T10:01:22.145Z,19.01
2022-09-07T10:03:58.443Z,19.17
2022-09-07T10:06:27.858Z,19.40
2022-09-07T10:09:01.911Z,19.32
2022-09-07T10:14:34.296Z,19.38
2022-09-07T10:17:02.153Z,18.88
2022-09-07T10:19:28.733Z,18.97
2022-09-07T10:21:57.356Z,18.59
2022-09-07T10:24:28.709Z,18.30
2022-09-07T10:26:55.205Z,18.34
2022-09-07T10:29:36.124Z,17.99
2022-09-07T10:32:05.790Z,18.00
2022-09-07T10:34:38.222Z,17.91
2022-09-07T10:37:11.026Z,18.29
2022-09-07T10:40:00.155Z,18.68
2022-09-07T10:42:33.760Z,18.41
2022-09-07T10:45:11.460Z,18.29
2022-09-07T10:48:19.504Z,18.36
2022-09-07T10:50:51.450Z,18.78
2022-09-07T10:56:49.297Z,19.22
2022-09-07T11:06:16.205Z,19.61
2022-09-07T11:12:04.194Z,20.29
2022-09-07T11:14:58.508Z,20.99
2022-09-07T11:17:27.136Z,21.39
2022-09-07T11:20:22.396Z,21.20
2022-09-07T11:22:54.070Z,20.91
2022-09-07T11:25:32.274Z,21.20
2022-09-07T11:28:02.894Z,21.34
2022-09-07T11:30:36.477Z,21.19
2022-09-07T11:33:21.740Z,20.79
2022-09-07T11:35:48.161Z,21.32
2022-09-07T11:38:35.596Z,20.60
2022-09-07T11:41:13.794Z,21.78
2022-09-07T11:43:46.534Z,21.87
2022-09-07T11:46:16.164Z,21.31
2022-09-07T11:48:49.252Z,21.36
2022-09-07T11:51:34.485Z,21.99
2022-09-07T11:54:08.661Z,22.74
2022-09-07T11:56:39.777Z,22.40
2022-09-07T11:59:12.266Z,21.52
2022-09-07T12:01:54.364Z,22.15
2022-09-07T12:04:56.132Z,22.74
2022-09-07T12:10:08.854Z,23.44
2022-09-07T12:12:38.309Z,23.48
2022-09-07T12:15:10.945Z,23.65
2022-09-07T12:17:55.615Z,23.61
2022-09-07T12:20:26.793Z,23.80
2022-09-07T12:23:05.373Z,23.45
2022-09-07T12:25:33.983Z,23.74
2022-09-07T12:28:00.936Z,24.60
2022-09-07T12:30:28.186Z,24.85
2022-09-07T12:33:06.057Z,24.66
2022-09-07T12:35:40.277Z,24.97
2022-09-07T12:38:18.955Z,25.15
2022-09-07T12:40:54.598Z,25.02
2022-09-07T12:43:21.006Z,25.08
2022-09-07T12:45:50.692Z,24.82
2022-09-07T12:48:17.151Z,25.64
2022-09-07T12:51:02.007Z,26.00
2022-09-07T12:53:39.468Z,25.71
2022-09-07T12:56:21.396Z,25.92
2022-09-07T12:58:56.991Z,26.20
2022-09-07T13:01:35.793Z,26.07
2022-09-07T13:04:34.434Z,26.57
2022-09-07T13:07:08.297Z,25.41
2022-09-07T13:09:36.510Z,26.61
2022-09-07T13:12:55.290Z,26.25
2022-09-07T13:15:32.302Z,25.24
2022-09-07T13:17:59.005Z,25.31
2022-09-07T13:20:30.383Z,25.83
2022-09-07T13:23:08.370Z,25.15
2022-09-07T13:25:37.905Z,25.92
2022-09-07T13:28:15.811Z,26.63
2022-09-07T13:30:53.470Z,26.04
2022-09-07T13:33:29.438Z,25.70
2022-09-07T13:36:00.290Z,27.00
2022-09-07T13:38:28.032Z,26.25
2022-09-07T13:41:00.494Z,27.11
2022-09-07T13:43:27.020Z,27.38
2022-09-07T13:45:53.591Z,27.34
2022-09-07T13:48:35.605Z,27.26
2022-09-07T13:51:10.495Z,27.40
2022-09-07T13:53:45.735Z,26.87
2022-09-07T13:56:16.729Z,26.80
2022-09-07T13:58:47.005Z,26.07
2022-09-07T14:01:13.487Z,26.22
2022-09-07T14:03:49.252Z,26.10
2022-09-07T14:06:27.778Z,25.37
2022-09-07T14:08:57.090Z,24.69
2022-09-07T14:11:43.831Z,24.83
2022-09-07T14:14:13.835Z,25.55
2022-09-07T14:16:42.253Z,25.92
2022-09-07T14:19:10.868Z,26.22
2022-09-07T14:21:37.686Z,26.24
2022-09-07T14:24:19.444Z,25.68
2022-09-07T14:26:48.031Z,26.11
2022-09-07T14:29:32.233Z,25.68
2022-09-07T14:32:00.957Z,25.11
2022-09-07T14:34:34.071Z,25.28
2022-09-07T14:37:04.346Z,26.05
2022-09-07T14:39:35.817Z,25.90
2022-09-07T14:42:03.818Z,25.65
2022-09-07T14:44:39.022Z,25.60
2022-09-07T14:47:29.697Z,26.13
2022-09-07T14:49:58.244Z,26.01
2022-09-07T14:52:35.760Z,25.97
2022-09-07T14:55:07.970Z,26.37
2022-09-07T14:57:34.425Z,26.24
2022-09-07T15:00:26.794Z,26.33
2022-09-07T15:02:53.322Z,26.28
2022-09-07T15:05:28.060Z,26.06
2022-09-07T15:08:02.729Z,26.23
2022-09-07T15:10:32.226Z,25.71
2022-09-07T15:13:00.012Z,25.69
2022-09-07T15:15:29.491Z,25.81
2022-09-07T15:18:03.229Z,25.66
2022-09-07T15:20:43.998Z,26.05
2022-09-07T15:23:12.598Z,26.21
2022-09-07T15:25:40.703Z,25.67
2022-09-07T15:28:15.272Z,25.89
2022-09-07T15:33:48.173Z,25.58
2022-09-07T15:36:16.544Z,25.80
2022-09-07T15:41:29.621Z,25.95
2022-09-07T15:43:56.837Z,26.26
2022-09-07T15:46:25.060Z,25.85
2022-09-07T15:48:55.717Z,25.94
2022-09-07T15:54:13.969Z,25.89
2022-09-07T15:56:42.688Z,25.75
2022-09-07T15:59:10.343Z,25.65
2022-09-07T16:01:54.708Z,25.32
2022-09-07T16:04:24.051Z,24.82
2022-09-07T16:06:50.843Z,24.87
2022-09-07T16:09:17.449Z,24.75
2022-09-07T16:11:44.384Z,24.28
2022-09-07T16:14:12.405Z,24.28
2022-09-07T16:19:25.290Z,24.22
2022-09-07T16:21:51.739Z,24.27
2022-09-07T16:24:18.386Z,24.11
2022-09-07T16:26:44.962Z,24.47
2022-09-07T16:29:11.470Z,24.45
2022-09-07T16:31:38.159Z,24.64
2022-09-07T16:34:04.892Z,24.14
2022-09-07T16:36:31.374Z,23.95
2022-09-07T16:38:59.855Z,23.81
2022-09-07T16:41:29.343Z,23.90
2022-09-07T16:43:56.024Z,24.11
2022-09-07T16:46:25.266Z,24.17
2022-09-07T16:48:52.587Z,24.44
2022-09-07T16:51:21.347Z,24.34
2022-09-07T16:53:49.398Z,24.40
2022-09-07T16:56:18.204Z,24.05
2022-09-07T16:58:46.765Z,23.94
2022-09-07T17:01:15.943Z,24.12
2022-09-07T17:03:43.142Z,23.44
2022-09-07T17:06:11.592Z,23.81
2022-09-07T17:08:38.698Z,23.44
2022-09-07T17:11:09.183Z,23.69
2022-09-07T17:13:37.306Z,23.74
2022-09-07T17:16:05.411Z,23.52
2022-09-07T17:21:19.866Z,23.36
2022-09-07T17:23:54.377Z,23.49
2022-09-07T17:26:23.252Z,23.67
2022-09-07T17:28:50.873Z,23.72
2022-09-07T17:34:11.416Z,23.45
2022-09-07T17:36:37.891Z,23.50
2022-09-07T17:39:20.114Z,23.17
2022-09-07T17:41:48.237Z,23.19
2022-09-07T17:44:15.117Z,23.32
2022-09-07T17:46:41.609Z,23.31
2022-09-07T17:49:16.456Z,23.17
2022-09-07T17:51:44.235Z,23.15
2022-09-07T17:54:14.193Z,22.76
2022-09-07T17:56:41.650Z,22.80
2022-09-07T18:01:55.614Z,22.49
2022-09-07T18:04:22.302Z,22.45
2022-09-07T18:06:48.984Z,22.56
2022-09-07T18:09:15.784Z,22.62
2022-09-07T18:11:46.751Z,22.60
2022-09-07T18:14:14.669Z,22.66
2022-09-07T18:16:42.500Z,22.32
2022-09-07T18:19:10.947Z,22.13
2022-09-07T18:21:37.939Z,21.85
2022-09-07T18:24:07.487Z,22.08
2022-09-07T18:26:39.091Z,22.19
2022-09-07T18:29:13.249Z,22.14
2022-09-07T18:31:53.867Z,22.38
2022-09-07T18:34:20.842Z,21.89
2022-09-07T18:36:47.395Z,22.05
2022-09-07T18:39:14.103Z,22.21
2022-09-07T18:41:40.842Z,22.09
2022-09-07T18:45:27.292Z,22.22
2022-09-07T18:46:54.468Z,22.20
2022-09-07T18:49:20.944Z,21.81
2022-09-07T18:54:33.844Z,22.27
2022-09-07T18:57:00.424Z,22.36
2022-09-07T18:59:26.915Z,22.25
2022-09-07T19:01:54.127Z,21.95
2022-09-07T19:04:21.427Z,21.30
2022-09-07T19:06:48.109Z,21.80
2022-09-07T19:09:14.694Z,21.74
2022-09-07T19:11:42.132Z,21.54
2022-09-07T19:14:08.911Z,21.20
2022-09-07T19:16:35.532Z,21.16
2022-09-07T19:19:04.448Z,21.54
2022-09-07T19:21:35.747Z,21.37
2022-09-07T19:24:07.647Z,21.53
2022-09-07T19:26:36.879Z,21.72
2022-09-07T19:29:04.631Z,21.81
2022-09-07T19:31:31.427Z,21.51
2022-09-07T19:33:59.907Z,21.54
2022-09-07T19:36:27.652Z,21.36
2022-09-07T19:38:54.126Z,21.47
2022-09-07T19:41:21.072Z,21.47
2022-09-07T19:43:48.400Z,21.48
2022-09-07T19:46:16.461Z,21.36
2022-09-07T19:48:44.556Z,21.39
2022-09-07T19:51:12.995Z,21.33
2022-09-07T19:53:42.946Z,21.39
2022-09-07T19:56:12.814Z,21.31
2022-09-07T19:58:41.809Z,21.40
2022-09-07T20:01:08.394Z,21.18
2022-09-07T20:03:35.434Z,21.48
2022-09-07T20:06:18.956Z,21.43
2022-09-07T20:08:45.720Z,21.14
2022-09-07T20:11:14.466Z,21.30
2022-09-07T20:13:41.524Z,21.08
2022-09-07T20:16:11.291Z,21.38
2022-09-07T20:18:38.980Z,21.34
2022-09-07T20:21:06.982Z,21.51
2022-09-07T20:23:34.978Z,21.52
2022-09-07T20:26:04.193Z,21.42
2022-09-07T20:28:31.351Z,21.37
2022-09-07T20:30:58.072Z,21.44
2022-09-07T20:33:24.742Z,21.54
2022-09-07T20:35:51.568Z,21.46
2022-09-07T20:38:20.636Z,21.45
2022-09-07T20:40:54.358Z,21.61
2022-09-07T20:43:21.660Z,21.59
2022-09-07T20:45:48.262Z,21.37
2022-09-07T20:48:15.433Z,21.35
2022-09-07T20:50:42.278Z,21.45
2022-09-07T20:53:08.856Z,21.55
2022-09-07T20:55:35.980Z,21.39
2022-09-07T20:58:03.004Z,21.21
2022-09-07T21:00:29.642Z,21.15
2022-09-07T21:02:56.373Z,21.21
2022-09-07T21:05:22.875Z,21.17
2022-09-07T21:07:49.401Z,21.06
2022-09-07T21:10:15.984Z,21.08
2022-09-07T21:12:42.531Z,20.84
2022-09-07T21:15:09.838Z,20.73
2022-09-07T21:17:36.349Z,20.67
2022-09-07T21:20:03.030Z,21.13
2022-09-07T21:22:30.918Z,20.93
2022-09-07T21:24:57.402Z,20.79
2022-09-07T21:27:24.476Z,20.89
2022-09-07T21:29:51.124Z,21.20
2022-09-07T21:32:17.629Z,21.19
2022-09-07T21:34:44.060Z,21.17
2022-09-07T21:37:10.526Z,21.14
2022-09-07T21:39:37.016Z,21.03
2022-09-07T21:42:04.473Z,21.26
2022-09-07T21:44:30.906Z,21.27
2022-09-07T21:46:57.444Z,21.38
2022-09-07T21:49:23.972Z,21.27
2022-09-07T21:51:50.438Z,21.25
2022-09-07T21:54:16.904Z,21.35
2022-09-07T21:56:46.504Z,21.13
2022-09-07T21:59:13.536Z,21.24
2022-09-07T22:01:40.917Z,21.23
2022-09-07T22:04:07.484Z,21.32
2022-09-07T22:06:34.792Z,21.32
2022-09-07T22:09:03.170Z,21.10
2022-09-07T22:11:30.114Z,21.10
2022-09-07T22:13:58.755Z,20.94
2022-09-07T22:16:25.668Z,21.08
2022-09-07T22:18:52.538Z,20.83
2022-09-07T22:21:24.704Z,20.71
2022-09-07T22:23:54.353Z,20.71
2022-09-07T22:26:22.812Z,20.74
2022-09-07T22:28:49.652Z,20.83
2022-09-07T22:31:19.107Z,20.62
2022-09-07T22:33:46.633Z,20.26
2022-09-07T22:36:17.441Z,20.39
2022-09-07T22:38:45.407Z,20.33
2022-09-07T22:41:20.078Z,20.47
2022-09-07T22:43:47.156Z,20.70
2022-09-07T22:46:14.407Z,20.60
2022-09-07T22:48:41.390Z,20.29
2022-09-07T22:51:08.828Z,20.07
2022-09-07T22:53:37.259Z,20.17
2022-09-07T22:56:08.172Z,20.11
2022-09-07T22:58:35.227Z,20.00
2022-09-07T23:01:02.043Z,20.26
2022-09-07T23:03:29.494Z,19.89
2022-09-07T23:05:57.048Z,19.88
2022-09-07T23:08:24.546Z,19.87
2022-09-07T23:10:51.139Z,19.81
2022-09-07T23:13:17.718Z,19.91
2022-09-07T23:15:44.448Z,19.41
2022-09-07T23:18:15.796Z,19.55
2022-09-07T23:20:42.589Z,19.63
2022-09-07T23:23:09.675Z,19.42
2022-09-07T23:25:39.602Z,19.63
2022-09-07T23:28:07.373Z,19.44
2022-09-07T23:30:35.698Z,19.63
2022-09-07T23:33:02.960Z,19.53
2022-09-07T23:35:29.540Z,19.61
2022-09-07T23:37:56.109Z,19.48
2022-09-07T23:40:23.058Z,19.54
2022-09-07T23:42:49.588Z,19.15
2022-09-07T23:45:16.158Z,18.97
2022-09-07T23:47:42.633Z,19.13
2022-09-07T23:50:09.918Z,18.96
2022-09-07T23:52:37.320Z,19.12
2022-09-07T23:55:04.542Z,19.31
2022-09-07T23:57:31.506Z,18.84
2022-09-07T23:59:58.260Z,19.08
